CDT,Max TemperatureF,Mean TemperatureF,Min TemperatureF,Max Dew PointF,MeanDew PointF,Min DewpointF,Max Humidity, Mean Humidity, Min Humidity, Max Sea Level PressureIn, Mean Sea Level PressureIn, Min Sea Level PressureIn, Max VisibilityMiles, Mean VisibilityMiles, Min VisibilityMiles, Max Wind SpeedMPH, Mean Wind SpeedMPH, Max Gust SpeedMPH,PrecipitationIn, CloudCover, Events, WindDirDegrees
2012-9-1,95,78,62,65,59,54,94,55,25,30.07,30.01,29.93,10,10,10,15,9,21,0.00,0,,151
2012-9-2,96,82,67,65,59,50,87,53,20,29.96,29.92,29.87,10,10,10,18,11,25,0.00,0,,223
2012-9-3,92,80,67,65,59,52,80,55,25,29.96,29.92,29.84,10,10,10,20,8,26,0.00,0,Rain,121
2012-9-4,99,78,58,68,58,43,99,62,14,29.92,29.83,29.71,10,8,0,16,5,25,0.00,1,Fog,122
2012-9-5,77,66,56,57,46,35,90,54,22,30.06,29.97,29.79,10,10,7,21,8,26,0.00,0,,333
2012-9-6,95,72,50,51,44,39,75,41,17,30.00,29.90,29.76,10,10,10,28,10,36,0.00,0,,184
2012-9-7,73,62,51,52,46,38,85,56,30,30.21,30.11,29.91,10,10,10,22,15,28,0.00,1,Rain,342
2012-9-8,85,64,42,44,38,32,85,46,16,30.21,30.15,30.05,10,10,10,22,9,31,0.00,0,,303
2012-9-9,79,59,39,41,35,28,87,45,16,30.28,30.18,30.06,10,10,10,12,5,,0.00,0,,186
2012-9-10,94,74,55,43,40,36,57,33,14,30.05,29.89,29.76,10,10,10,31,15,40,0.00,0,,180
2012-9-11,97,82,67,46,42,38,40,28,16,29.95,29.80,29.76,10,10,10,21,13,28,0.00,0,,209
2012-9-12,68,59,48,51,45,35,94,69,28,30.33,30.19,29.96,10,10,7,24,13,29,0.07,3,Rain,19
2012-9-13,77,58,40,50,38,29,100,57,17,30.43,30.36,30.30,10,9,1,15,4,20,0.00,0,,238
2012-9-14,81,62,45,42,38,34,75,42,19,30.34,30.29,30.22,10,10,10,12,7,16,0.00,0,,268
2012-9-15,86,66,48,41,37,34,71,38,16,30.21,30.12,30.02,10,10,10,22,10,29,0.00,0,,188
2012-9-16,86,68,51,54,45,36,95,49,19,30.04,29.95,29.86,10,10,10,16,8,18,0.00,0,,183
2012-9-17,67,56,43,46,38,32,83,54,28,30.14,30.08,29.96,10,10,10,23,15,30,0.00,2,,351
2012-9-18,77,56,34,39,33,28,85,44,19,30.13,29.99,29.86,10,10,10,14,5,18,0.00,0,,203
2012-9-19,77,63,49,39,35,27,65,38,17,30.06,29.92,29.81,10,10,10,31,11,39,0.00,0,,285
2012-9-20,74,58,42,36,33,31,70,47,21,30.09,30.02,29.93,10,10,10,13,4,,0.00,1,,311
2012-9-21,74,61,48,37,35,32,62,41,22,30.07,29.95,29.89,10,10,7,22,10,32,0.03,0,,302
2012-9-22,61,47,33,32,27,22,87,47,25,30.34,30.26,30.09,10,10,10,12,7,17,0.00,0,,3
2012-9-23,72,54,36,32,27,22,69,40,17,30.32,30.24,30.14,10,10,10,15,5,22,0.00,0,,150
2012-9-24,77,62,46,48,39,32,86,46,28,30.13,29.99,29.87,10,10,10,14,7,17,0.00,0,,207
2012-9-25,82,62,42,47,38,30,96,50,16,29.97,29.90,29.86,10,10,10,7,4,,0.00,0,,337
2012-9-26,75,58,42,37,36,32,76,45,24,30.18,30.10,29.96,10,9,2,9,6,,0.00,0,,74
2012-9-27,78,58,40,41,36,30,74,45,24,30.22,30.18,30.12,10,10,7,7,3,,0.00,0,,135
2012-9-28,79,59,40,36,32,27,77,40,16,30.19,30.15,30.10,10,10,10,9,3,,0.00,0,,126
2012-9-29,80,61,43,43,34,28,67,38,18,30.16,30.11,30.03,10,10,10,13,6,16,0.00,0,,175
2012-9-30,81,62,43,49,41,36,81,47,27,30.05,29.98,29.91,10,10,10,10,4,,0.00,1,Thunderstorm,172